createdAt,value
2022-11-21T00:01:13.932Z,100290.38
2022-11-21T00:03:49.067Z,100286.00
2022-11-21T00:06:20.349Z,100274.72
2022-11-21T00:08:48.230Z,100271.13
2022-11-21T00:11:16.825Z,100262.44
2022-11-21T00:13:45.602Z,100258.84
2022-11-21T00:16:15.756Z,100257.22
2022-11-21T00:18:44.289Z,100259.88
2022-11-21T00:21:14.531Z,100255.53
2022-11-21T00:23:45.809Z,100260.81
2022-11-21T00:26:14.857Z,100282.56
2022-11-21T00:28:42.893Z,100273.97
2022-11-21T00:31:22.179Z,100286.19
2022-11-21T00:33:49.844Z,100289.41
2022-11-21T00:36:17.511Z,100288.56
2022-11-21T00:38:45.008Z,100293.06
2022-11-21T00:41:12.528Z,100288.81
2022-11-21T00:43:40.223Z,100285.28
2022-11-21T00:46:07.710Z,100279.13
2022-11-21T00:48:35.139Z,100272.31
2022-11-21T00:51:02.797Z,100270.63
2022-11-21T00:53:30.561Z,100265.38
2022-11-21T00:55:58.244Z,100278.22
2022-11-21T00:58:26.128Z,100273.00
2022-11-21T01:00:53.854Z,100273.84
2022-11-21T01:03:21.621Z,100275.72
2022-11-21T01:05:49.105Z,100272.97
2022-11-21T01:08:16.624Z,100266.81
2022-11-21T01:10:44.067Z,100274.72
2022-11-21T01:13:11.576Z,100269.44
2022-11-21T01:15:39.018Z,100266.00
2022-11-21T01:18:06.520Z,100259.59
2022-11-21T01:20:34.168Z,100258.53
2022-11-21T01:23:01.689Z,100261.19
2022-11-21T01:25:29.169Z,100259.34
2022-11-21T01:27:56.690Z,100242.31
2022-11-21T01:30:24.299Z,100240.91
2022-11-21T01:32:52.572Z,100247.88
2022-11-21T01:35:20.034Z,100255.84
2022-11-21T01:37:48.740Z,100255.00
2022-11-21T01:40:16.960Z,100264.66
2022-11-21T01:43:04.437Z,100270.63
2022-11-21T01:45:55.175Z,100270.63
2022-11-21T01:48:46.048Z,100274.19
2022-11-21T01:51:24.731Z,100285.41
2022-11-21T01:54:11.635Z,100281.03
2022-11-21T01:56:58.790Z,100289.63
2022-11-21T01:59:30.893Z,100286.38
2022-11-21T02:02:01.624Z,100276.13
2022-11-21T02:04:32.064Z,100278.69
2022-11-21T02:07:03.863Z,100281.28
2022-11-21T02:09:33.409Z,100264.66
2022-11-21T02:12:18.464Z,100272.19
2022-11-21T02:14:47.508Z,100274.09
2022-11-21T02:17:14.923Z,100276.66
2022-11-21T02:19:58.542Z,100273.06
2022-11-21T02:22:49.350Z,100263.47
2022-11-21T02:25:20.827Z,100264.00
2022-11-21T02:27:51.271Z,100265.44
2022-11-21T02:30:19.379Z,100252.66
2022-11-21T02:32:47.298Z,100258.22
2022-11-21T02:35:19.382Z,100256.50
2022-11-21T02:37:53.149Z,100260.03
2022-11-21T02:40:31.973Z,100252.34
2022-11-21T02:43:06.759Z,100251.59
2022-11-21T02:45:41.981Z,100241.34
2022-11-21T02:48:09.992Z,100252.69
2022-11-21T02:50:39.623Z,100252.72
2022-11-21T02:53:09.623Z,100234.28
2022-11-21T02:55:38.188Z,100235.03
2022-11-21T02:58:06.646Z,100223.66
2022-11-21T03:00:36.195Z,100214.09
2022-11-21T03:03:04.359Z,100207.78
2022-11-21T03:05:32.298Z,100211.31
2022-11-21T03:07:59.775Z,100220.00
2022-11-21T03:10:27.692Z,100208.09
2022-11-21T03:13:01.408Z,100206.44
2022-11-21T03:15:31.803Z,100205.66
2022-11-21T03:18:03.063Z,100196.13
2022-11-21T03:20:31.951Z,100203.97
2022-11-21T03:22:59.519Z,100194.38
2022-11-21T03:25:27.144Z,100204.72
2022-11-21T03:27:55.231Z,100186.41
2022-11-21T03:30:25.010Z,100199.44
2022-11-21T03:32:56.740Z,100197.66
2022-11-21T03:35:25.738Z,100196.81
2022-11-21T03:37:53.615Z,100199.44
2022-11-21T03:40:21.142Z,100202.13
2022-11-21T03:42:48.654Z,100202.97
2022-11-21T03:45:16.300Z,100190.78
2022-11-21T03:47:49.621Z,100195.09
2022-11-21T03:50:19.156Z,100188.19
2022-11-21T03:52:46.839Z,100180.25
2022-11-21T03:55:15.350Z,100184.56
2022-11-21T03:57:42.891Z,100177.63
2022-11-21T04:00:11.055Z,100179.38
2022-11-21T04:02:38.579Z,100161.22
2022-11-21T04:07:51.031Z,100171.22
2022-11-21T04:10:19.427Z,100162.97
2022-11-21T04:12:47.266Z,100167.66
2022-11-21T04:15:14.953Z,100173.56
2022-11-21T04:17:42.515Z,100175.63
2022-11-21T04:20:10.831Z,100178.19
2022-11-21T04:22:38.444Z,100178.41
2022-11-21T04:25:06.636Z,100182.97
2022-11-21T04:27:34.137Z,100183.00
2022-11-21T04:30:01.679Z,100176.00
2022-11-21T04:32:29.294Z,100181.22
2022-11-21T04:34:56.767Z,100187.16
2022-11-21T04:37:24.153Z,100182.81
2022-11-21T04:39:51.688Z,100186.75
2022-11-21T04:42:19.211Z,100169.47
2022-11-21T04:44:46.814Z,100173.28
2022-11-21T04:47:14.261Z,100173.53
2022-11-21T04:49:42.106Z,100173.84
2022-11-21T04:52:09.627Z,100167.69
2022-11-21T04:54:37.157Z,100174.38
2022-11-21T04:57:04.641Z,100167.38
2022-11-21T04:59:32.217Z,100167.25
2022-11-21T05:01:59.698Z,100175.13
2022-11-21T05:04:27.315Z,100175.00
2022-11-21T05:06:54.941Z,100178.41
2022-11-21T05:09:22.719Z,100176.63
2022-11-21T05:12:08.481Z,100186.16
2022-11-21T05:14:59.927Z,100181.56
2022-11-21T05:17:46.595Z,100171.41
2022-11-21T05:20:20.787Z,100186.22
2022-11-21T05:23:00.403Z,100162.84
2022-11-21T05:25:37.282Z,100168.19
2022-11-21T05:28:08.688Z,100164.00
2022-11-21T05:30:39.019Z,100162.88
2022-11-21T05:33:12.068Z,100166.56
2022-11-21T05:36:13.183Z,100153.50
2022-11-21T05:39:00.468Z,100148.47
2022-11-21T05:41:31.984Z,100152.94
2022-11-21T05:44:06.597Z,100140.09
2022-11-21T05:46:39.658Z,100147.00
2022-11-21T05:49:10.590Z,100140.19
2022-11-21T05:51:42.840Z,100130.50
2022-11-21T05:54:17.690Z,100125.63
2022-11-21T05:56:51.274Z,100141.59
2022-11-21T06:19:24.484Z,100158.53
2022-11-21T06:21:52.332Z,100145.75
2022-11-21T06:24:22.614Z,100143.84
2022-11-21T06:26:50.406Z,100131.09
2022-11-21T06:29:18.040Z,100121.81
2022-11-21T06:31:48.841Z,100138.63
2022-11-21T06:34:16.885Z,100124.88
2022-11-21T06:36:44.962Z,100132.69
2022-11-21T06:39:12.839Z,100130.03
2022-11-21T06:41:40.544Z,100122.28
2022-11-21T06:44:08.606Z,100129.16
2022-11-21T06:46:36.514Z,100151.09
2022-11-21T06:49:10.453Z,100159.78
2022-11-21T06:51:44.413Z,100166.00
2022-11-21T06:54:29.391Z,100158.09
2022-11-21T06:57:00.053Z,100156.31
2022-11-21T06:59:36.811Z,100152.66
2022-11-21T07:02:17.810Z,100160.31
2022-11-21T07:04:54.468Z,100153.66
2022-11-21T07:07:33.449Z,100166.38
2022-11-21T07:10:01.220Z,100160.97
2022-11-21T07:12:47.709Z,100169.69
2022-11-21T07:15:55.845Z,100170.16
2022-11-21T07:18:23.560Z,100174.50
2022-11-21T07:20:51.308Z,100172.53
2022-11-21T07:23:21.980Z,100186.72
2022-11-21T07:25:50.100Z,100199.13
2022-11-21T07:28:17.807Z,100185.50
2022-11-21T07:30:45.708Z,100194.44
2022-11-21T07:33:13.413Z,100187.97
2022-11-21T07:35:43.652Z,100198.66
2022-11-21T07:38:13.645Z,100211.00
2022-11-21T07:40:41.315Z,100208.44
2022-11-21T07:43:11.324Z,100201.59
2022-11-21T07:45:39.122Z,100210.38
2022-11-21T07:48:08.140Z,100209.47
2022-11-21T07:50:36.044Z,100212.13
2022-11-21T07:53:06.276Z,100206.03
2022-11-21T07:55:40.590Z,100196.53
2022-11-21T07:58:11.848Z,100211.31
2022-11-21T08:00:42.972Z,100200.84
2022-11-21T08:03:12.584Z,100195.56
2022-11-21T08:05:42.577Z,100198.16
2022-11-21T08:08:12.351Z,100199.09
2022-11-21T08:10:42.682Z,100196.44
2022-11-21T08:13:11.496Z,100192.16
2022-11-21T08:15:39.108Z,100203.56
2022-11-21T08:18:11.570Z,100206.22
2022-11-21T08:20:39.976Z,100209.66
2022-11-21T08:23:07.667Z,100199.19
2022-11-21T08:25:37.977Z,100214.88
2022-11-21T08:28:06.113Z,100213.16
2022-11-21T08:30:37.388Z,100195.72
2022-11-21T08:33:07.137Z,100207.09
2022-11-21T08:35:37.912Z,100202.69
2022-11-21T08:38:06.993Z,100204.44
2022-11-21T08:40:35.709Z,100187.84
2022-11-21T08:43:07.614Z,100190.41
2022-11-21T08:45:36.627Z,100189.56
2022-11-21T08:48:05.076Z,100178.28
2022-11-21T08:50:32.564Z,100177.44
2022-11-21T08:53:02.094Z,100197.47
2022-11-21T08:55:30.871Z,100188.75
2022-11-21T08:57:58.679Z,100173.91
2022-11-21T09:00:28.293Z,100179.97
2022-11-21T09:02:55.829Z,100178.19
2022-11-21T09:05:28.067Z,100177.34
2022-11-21T09:07:58.903Z,100170.41
2022-11-21T09:10:29.254Z,100159.91
2022-11-21T09:13:00.138Z,100161.72
2022-11-21T09:15:48.053Z,100171.09
2022-11-21T09:18:15.558Z,100164.06
2022-11-21T09:20:44.958Z,100177.13
2022-11-21T09:23:15.675Z,100189.84
2022-11-21T09:25:44.585Z,100187.16
2022-11-21T09:28:14.832Z,100195.16
2022-11-21T09:30:43.033Z,100187.38
2022-11-21T09:33:13.412Z,100183.09
2022-11-21T09:35:41.116Z,100179.16
2022-11-21T09:38:10.005Z,100174.38
2022-11-21T09:40:43.455Z,100178.81
2022-11-21T09:43:29.017Z,100177.41
2022-11-21T09:46:10.243Z,100166.63
2022-11-21T09:49:00.664Z,100166.63
2022-11-21T09:51:31.798Z,100173.75
2022-11-21T09:54:12.012Z,100157.78
2022-11-21T09:56:43.812Z,100161.81
2022-11-21T09:59:42.014Z,100159.03
2022-11-21T10:02:23.203Z,100156.06
2022-11-21T10:04:52.043Z,100167.91
2022-11-21T10:07:26.251Z,100163.00
2022-11-21T10:10:31.236Z,100158.97
2022-11-21T10:13:31.700Z,100154.72
2022-11-21T10:16:21.187Z,100154.88
2022-11-21T10:19:12.527Z,100163.03
2022-11-21T10:22:15.491Z,100158.13
2022-11-21T10:25:20.645Z,100149.09
2022-11-21T10:27:55.890Z,100136.50
2022-11-21T10:30:23.570Z,100139.50
2022-11-21T10:32:56.797Z,100149.94
2022-11-21T10:35:29.446Z,100140.97
2022-11-21T10:38:01.342Z,100135.19
2022-11-21T10:41:07.212Z,100129.47
2022-11-21T10:44:12.418Z,100123.03
2022-11-21T10:46:39.776Z,100115.03
2022-11-21T10:49:12.557Z,100096.16
2022-11-21T10:51:50.587Z,100108.09
2022-11-21T10:54:33.249Z,100102.78
2022-11-21T10:57:00.700Z,100095.66
2022-11-21T10:59:31.361Z,100088.84
2022-11-21T11:02:03.697Z,100093.13
2022-11-21T11:04:41.661Z,100088.63
2022-11-21T11:07:25.104Z,100088.44
2022-11-21T11:09:53.615Z,100079.78
2022-11-21T11:12:24.133Z,100080.19
2022-11-21T11:14:54.470Z,100070.84
2022-11-21T11:17:31.301Z,100069.94
2022-11-21T11:20:30.359Z,100080.56
2022-11-21T11:22:58.030Z,100068.31
2022-11-21T11:25:25.702Z,100064.88
2022-11-21T11:27:54.340Z,100060.41
2022-11-21T11:30:21.822Z,100059.13
2022-11-21T11:32:49.279Z,100048.94
2022-11-21T11:35:16.748Z,100046.91
2022-11-21T11:38:06.047Z,100028.25
2022-11-21T11:40:41.033Z,100021.00
2022-11-21T11:43:26.890Z,100029.34
2022-11-21T11:46:31.812Z,100024.09
2022-11-21T11:49:20.374Z,100008.88
2022-11-21T11:51:57.237Z,100014.97
2022-11-21T11:54:32.892Z,100008.00
2022-11-21T11:57:00.275Z,100010.50
2022-11-21T11:59:40.065Z,100002.47
2022-11-21T12:02:22.223Z,100005.06
2022-11-21T12:05:04.075Z,100004.03
2022-11-21T12:08:44.345Z,100004.66
2022-11-21T12:11:34.133Z,99983.91
2022-11-21T12:19:15.948Z,99983.19
2022-11-21T12:21:43.810Z,99985.00
2022-11-21T12:32:36.454Z,99970.94
2022-11-21T13:17:52.986Z,99911.50
2022-11-21T13:20:24.330Z,99910.94
2022-11-21T13:22:57.473Z,99903.97
2022-11-21T13:31:23.788Z,99934.72
2022-11-21T13:33:52.068Z,99928.72
2022-11-21T13:37:11.209Z,99944.31
2022-11-21T13:39:39.641Z,99936.53
2022-11-21T13:43:03.661Z,99934.09
2022-11-21T13:45:45.568Z,99913.88
2022-11-21T13:48:37.200Z,99920.66
2022-11-21T13:51:18.886Z,99915.63
2022-11-21T13:53:58.657Z,99915.31
2022-11-21T13:57:05.364Z,99904.03
2022-11-21T13:59:37.881Z,99903.34
2022-11-21T14:02:14.428Z,99895.38
2022-11-21T14:05:01.653Z,99896.06
2022-11-21T14:07:33.257Z,99884.16
2022-11-21T14:10:18.066Z,99883.00
2022-11-21T14:12:50.030Z,99882.28
2022-11-21T14:15:55.473Z,99882.97
2022-11-21T14:18:27.716Z,99896.41
2022-11-21T14:21:01.653Z,99886.63
2022-11-21T14:23:48.099Z,99900.38
2022-11-21T14:26:20.250Z,99909.91
2022-11-21T14:28:48.674Z,99910.56
2022-11-21T14:31:22.648Z,99914.94
2022-11-21T14:33:57.981Z,99914.25
2022-11-21T14:36:31.651Z,99909.72
2022-11-21T14:39:37.984Z,99914.75
2022-11-21T14:41:57.820Z,99909.75
2022-11-21T14:44:26.782Z,99906.47
2022-11-21T14:47:19.795Z,99907.16
2022-11-21T14:49:59.660Z,99907.97
2022-11-21T14:52:33.752Z,99914.22
2022-11-21T15:21:36.591Z,99904.31
2022-11-21T15:24:17.859Z,99898.16
2022-11-21T15:26:47.196Z,99887.69
2022-11-21T15:29:21.010Z,99905.03
2022-11-21T15:35:00.097Z,99884.13
2022-11-21T15:37:27.915Z,99881.56
2022-11-21T15:39:55.417Z,99887.63
2022-11-21T15:42:31.705Z,99877.09
2022-11-21T15:45:19.888Z,99873.59
2022-11-21T15:47:49.032Z,99869.28
2022-11-21T15:50:17.027Z,99873.63
2022-11-21T15:52:49.367Z,99872.09
2022-11-21T15:55:26.524Z,99873.91
2022-11-21T15:57:13.218Z,99892.78
2022-11-21T15:57:54.053Z,99875.66
2022-11-21T16:00:21.433Z,99879.94
2022-11-21T16:02:48.913Z,99861.47
2022-11-21T16:05:16.538Z,99854.50
2022-11-21T16:07:44.292Z,99845.81
2022-11-21T16:10:19.888Z,99833.53
2022-11-21T16:12:54.952Z,99834.41
2022-11-21T16:15:22.701Z,99837.84
2022-11-21T16:18:42.834Z,99849.25
2022-11-21T16:21:12.067Z,99844.09
2022-11-21T16:23:39.830Z,99838.75
2022-11-21T16:26:08.853Z,99840.59
2022-11-21T16:28:37.628Z,99833.59
2022-11-21T16:31:07.111Z,99823.13
2022-11-21T16:33:35.852Z,99824.84
2022-11-21T16:36:03.404Z,99815.38
2022-11-21T16:38:31.952Z,99815.34
2022-11-21T16:41:01.682Z,99803.84
2022-11-21T16:46:44.205Z,99802.16
2022-11-21T16:49:42.938Z,99799.63
2022-11-21T16:52:11.631Z,99784.84
2022-11-21T16:54:39.434Z,99781.31
2022-11-21T16:57:07.871Z,99782.13
2022-11-21T16:59:36.692Z,99769.91
2022-11-21T17:02:05.885Z,99775.09
2022-11-21T17:04:49.347Z,99775.88
2022-11-21T17:07:19.959Z,99772.44
2022-11-21T17:09:48.919Z,99771.66
2022-11-21T17:12:33.592Z,99765.44
2022-11-21T17:15:03.269Z,99778.38
2022-11-21T17:17:33.112Z,99781.78
2022-11-21T17:20:03.890Z,99780.94
2022-11-21T17:22:42.569Z,99776.56
2022-11-21T17:32:41.746Z,99757.47
2022-11-21T17:35:11.931Z,99761.50
2022-11-21T17:37:40.797Z,99760.59
2022-11-21T17:40:12.255Z,99756.09
2022-11-21T17:43:30.956Z,99751.94
2022-11-21T17:46:09.305Z,99765.75
2022-11-21T17:48:38.139Z,99771.22
2022-11-21T17:51:09.489Z,99775.38
2022-11-21T17:54:17.904Z,99775.25
2022-11-21T17:57:49.877Z,99768.13
2022-11-21T18:01:32.326Z,99771.81
2022-11-21T18:08:56.260Z,99762.22
2022-11-21T18:15:41.676Z,99728.53
2022-11-21T18:18:31.529Z,99732.25
2022-11-21T18:21:24.092Z,99722.16
2022-11-21T18:24:04.855Z,99711.84
2022-11-21T18:26:35.837Z,99710.38
2022-11-21T18:52:47.708Z,99684.06
2022-11-21T19:20:18.925Z,99681.09
2022-11-21T19:22:49.144Z,99695.94
2022-11-21T19:25:19.790Z,99695.06
2022-11-21T19:27:50.043Z,99683.56
2022-11-21T19:30:17.930Z,99678.31
2022-11-21T19:32:45.803Z,99687.09
2022-11-21T19:35:14.272Z,99677.44
2022-11-21T19:37:49.261Z,99675.84
2022-11-21T19:40:17.529Z,99652.97
2022-11-21T19:42:47.678Z,99647.94
2022-11-21T19:45:18.132Z,99663.59
2022-11-21T19:47:57.205Z,99650.38
2022-11-21T19:50:27.118Z,99645.13
2022-11-21T19:53:01.854Z,99633.78
2022-11-21T19:55:36.042Z,99649.66
2022-11-21T19:58:03.997Z,99642.00
2022-11-21T20:00:34.164Z,99649.69
2022-11-21T20:03:02.098Z,99625.31
2022-11-21T20:05:31.031Z,99624.13
2022-11-21T20:08:04.933Z,99623.44
2022-11-21T20:11:04.328Z,99623.38
2022-11-21T20:19:11.807Z,99627.63
2022-11-21T20:22:21.576Z,99627.06
2022-11-21T20:30:07.708Z,99612.44
2022-11-21T20:33:11.108Z,99619.34
2022-11-21T20:35:46.570Z,99607.69
2022-11-21T20:39:04.195Z,99615.00
2022-11-21T20:41:20.037Z,99616.34
2022-11-21T20:46:50.923Z,99607.28
2022-11-21T20:49:21.132Z,99614.81
2022-11-21T20:54:45.399Z,99633.50
2022-11-21T20:57:25.485Z,99625.78
2022-11-21T20:59:56.420Z,99629.97
2022-11-21T21:02:26.655Z,99623.91
2022-11-21T21:04:54.247Z,99614.03
2022-11-21T21:07:22.101Z,99612.13
2022-11-21T21:09:50.088Z,99606.16
2022-11-21T21:12:17.788Z,99599.38
2022-11-21T21:14:45.622Z,99608.13
2022-11-21T21:17:13.355Z,99601.84
2022-11-21T21:19:41.091Z,99598.75
2022-11-21T21:22:09.227Z,99600.53
2022-11-21T21:24:36.839Z,99594.31
2022-11-21T21:27:08.172Z,99591.91
2022-11-21T21:29:35.910Z,99588.13
2022-11-21T21:32:03.703Z,99579.94
2022-11-21T21:34:32.982Z,99577.19
2022-11-21T21:53:38.841Z,99561.09
2022-11-21T22:20:59.471Z,99538.94
2022-11-21T22:40:18.125Z,99509.47
2022-11-21T22:58:55.302Z,99476.88
2022-11-21T23:11:12.804Z,99435.66
2022-11-21T23:31:17.787Z,99374.47
